Wetterdaten: Woche 08.06.26 - 14.06.26 (KW24)
Datum Zeit Außen Temp. Server Temp. +20m Feuchte Feuchte +20m Luftdruck Regen Wind Richtung Sonnenschein Helligkeit Solar Taupunkt
08.06.2026 00:00 11,7 °C 22,3 °C 11,4 °C 83 % 86 % 1022,9 hPa 0,00 l/m² 51,3 km/h (7 Bft) S-SW 0,00 h 0 lux 0 W/m² 8,8 °C
08.06.2026 01:00 11,0 °C 22,0 °C 10,4 °C 83 % 88 % 1022,2 hPa 0,00 l/m² 51,3 km/h (7 Bft) S-SW 0,00 h 0 lux 0 W/m² 8,2 °C
08.06.2026 02:00 10,8 °C 21,5 °C 9,9 °C 83 % 89 % 1022,2 hPa 0,00 l/m² 51,3 km/h (7 Bft) S-SW 0,00 h 0 lux 0 W/m² 8,0 °C
08.06.2026 03:00 10,3 °C 21,1 °C 9,4 °C 83 % 88 % 1022,3 hPa 0,00 l/m² 51,3 km/h (7 Bft) S-SW 0,00 h 0 lux 0 W/m² 7,5 °C
08.06.2026 04:00 9,8 °C 20,8 °C 8,8 °C 84 % 90 % 1021,3 hPa 0,00 l/m² 51,3 km/h (7 Bft) S-SW 0,00 h 116 lux 0 W/m² 7,3 °C
08.06.2026 05:00 9,7 °C 20,5 °C 9,2 °C 84 % 88 % 1021,3 hPa 0,00 l/m² 51,3 km/h (7 Bft) S-SW 0,25 h 3,70 klux 24 W/m² 7,1 °C
08.06.2026 06:00 10,7 °C 20,7 °C 15,9 °C 84 % 49 % 1020,9 hPa 0,00 l/m² 51,3 km/h (7 Bft) S-SW 0,50 h 14,7 klux 96 W/m² 8,0 °C
08.06.2026 07:00 17,1 °C 21,4 °C 22,4 °C 73 % 33 % 1019,5 hPa 0,00 l/m² 51,3 km/h (7 Bft) S-SW 0,00 h 11,6 klux 76 W/m² 12,0 °C
08.06.2026 08:00 20,6 °C 22,0 °C 21,7 °C 60 % 38 % 1019,1 hPa 0,00 l/m² 51,3 km/h (7 Bft) S-SW 0,50 h 39,9 klux 260 W/m² 12,5 °C
08.06.2026 09:00 20,5 °C 22,7 °C 19,5 °C 59 % 44 % 1018,9 hPa 0,00 l/m² 51,3 km/h (7 Bft) S-SW 0,75 h 50,5 klux 329 W/m² 12,0 °C
08.06.2026 10:00 20,0 °C 23,5 °C 21,3 °C 60 % 41 % 1018,2 hPa 0,00 l/m² 51,3 km/h (7 Bft) S-SW 0,75 h 66,3 klux 432 W/m² 12,0 °C
08.06.2026 11:00 21,1 °C 24,0 °C 22,3 °C 56 % 37 % 1017,5 hPa 0,00 l/m² 51,3 km/h (7 Bft) S-SW 1,00 h 74,7 klux 486 W/m² 12,0 °C
08.06.2026 12:00 22,6 °C 24,4 °C 23,8 °C 48 % 29 % 1016,6 hPa 0,00 l/m² 51,3 km/h (7 Bft) S-SW 1,00 h 83,9 klux 547 W/m² 11,1 °C
08.06.2026 13:00 24,3 °C 24,8 °C 25,6 °C 44 % 17 % 1015,4 hPa 0,00 l/m² 51,3 km/h (7 Bft) S-SW 1,00 h 83,1 klux 541 W/m² 11,1 °C
08.06.2026 14:00 25,2 °C 25,4 °C 27,0 °C 43 % 15 % 1014,6 hPa 0,00 l/m² 51,3 km/h (7 Bft) S-SW 0,75 h 71,5 klux 466 W/m² 11,5 °C
08.06.2026 15:00 25,7 °C 26,0 °C 27,3 °C 41 % 15 % 1013,5 hPa 0,00 l/m² 51,3 km/h (7 Bft) S-SW 0,25 h 60,3 klux 393 W/m² 11,4 °C
08.06.2026 16:00 25,2 °C 26,4 °C 26,7 °C 43 % 15 % 1013,5 hPa 0,00 l/m² 51,3 km/h (7 Bft) S-SW 0,00 h 30,6 klux 199 W/m² 11,8 °C
08.06.2026 17:00 25,6 °C 26,7 °C 27,2 °C 45 % 15 % 1012,5 hPa 0,00 l/m² 51,3 km/h (7 Bft) S-SW 0,25 h 35,8 klux 233 W/m² 12,8 °C
08.06.2026 18:00 24,3 °C 26,8 °C 25,0 °C 48 % 19 % 1012,1 hPa 0,00 l/m² 51,3 km/h (7 Bft) S-SW 0,00 h 10,8 klux 71 W/m² 12,5 °C
08.06.2026 19:00 22,4 °C 26,6 °C 22,9 °C 54 % 32 % 1011,8 hPa 0,00 l/m² 51,3 km/h (7 Bft) S-SW 0,00 h 4,73 klux 31 W/m² 12,5 °C
08.06.2026 20:00 21,6 °C 26,3 °C 22,8 °C 55 % 35 % 1011,8 hPa 0,00 l/m² 51,3 km/h (7 Bft) S-SW 0,25 h 6,30 klux 41 W/m² 12,1 °C
08.06.2026 21:00 20,4 °C 26,0 °C 21,0 °C 59 % 39 % 1011,9 hPa 0,00 l/m² 51,3 km/h (7 Bft) S-SW 0,50 h 2,01 klux 28 W/m² 12,1 °C
08.06.2026 22:00 18,6 °C 25,6 °C 18,7 °C 65 % 44 % 1011,4 hPa 0,00 l/m² 51,3 km/h (7 Bft) S-SW 0,00 h 31 lux 0 W/m² 11,7 °C
08.06.2026 23:00 17,5 °C 25,2 °C 17,6 °C 67 % 45 % 1011,2 hPa 0,00 l/m² 51,3 km/h (7 Bft) S-SW 0,00 h 0 lux 0 W/m² 11,4 °C
09.06.2026 00:00 17,5 °C 24,8 °C 17,7 °C 66 % 44 % 1010,7 hPa 0,00 l/m² 51,3 km/h (7 Bft) S-SW 0,00 h 0 lux 0 W/m² 11,1 °C
09.06.2026 01:00 17,2 °C 24,5 °C 17,3 °C 67 % 44 % 1010,2 hPa 0,00 l/m² 51,3 km/h (7 Bft) S-SW 0,00 h 0 lux 0 W/m² 10,9 °C
09.06.2026 02:00 16,9 °C 24,3 °C 17,2 °C 70 % 46 % 1010,2 hPa 0,00 l/m² 51,3 km/h (7 Bft) S-SW 0,00 h 0 lux 0 W/m² 11,4 °C
09.06.2026 03:00 16,3 °C 24,1 °C 16,8 °C 76 % 49 % 1010,3 hPa 0,44 l/m² 51,3 km/h (7 Bft) S-SW 0,00 h 0 lux 0 W/m² 12,0 °C
09.06.2026 04:00 14,4 °C 23,9 °C 14,7 °C 82 % 72 % 1010,5 hPa 0,55 l/m² 51,3 km/h (7 Bft) S-SW 0,00 h 0 lux 0 W/m² 11,3 °C
09.06.2026 05:00 13,5 °C 23,6 °C 13,3 °C 82 % 84 % 1011,1 hPa 0,00 l/m² 51,3 km/h (7 Bft) S-SW 0,00 h 672 lux 4 W/m² 10,6 °C
09.06.2026 06:00 13,2 °C 23,3 °C 13,0 °C 83 % 69 % 1011,7 hPa 0,00 l/m² 51,3 km/h (7 Bft) S-SW 0,00 h 2,29 klux 15 W/m² 10,4 °C
09.06.2026 07:00 13,2 °C 23,1 °C 12,9 °C 82 % 72 % 1012,3 hPa 0,00 l/m² 51,3 km/h (7 Bft) S-SW 0,00 h 2,51 klux 16 W/m² 10,3 °C
09.06.2026 08:00 14,4 °C 22,9 °C 14,5 °C 80 % 56 % 1012,6 hPa 0,00 l/m² 51,3 km/h (7 Bft) S-SW 0,00 h 17,2 klux 112 W/m² 10,9 °C
09.06.2026 09:00 14,6 °C 22,8 °C 14,7 °C 76 % 48 % 1012,5 hPa 0,00 l/m² 51,3 km/h (7 Bft) S-SW 0,00 h 11,0 klux 72 W/m² 10,4 °C
09.06.2026 10:00 14,8 °C 22,7 °C 15,4 °C 72 % 45 % 1012,5 hPa 0,00 l/m² 51,3 km/h (7 Bft) S-SW 0,00 h 19,2 klux 125 W/m² 9,9 °C
09.06.2026 11:00 16,1 °C 22,9 °C 17,4 °C 62 % 40 % 1013,4 hPa 0,00 l/m² 51,3 km/h (7 Bft) S-SW 0,75 h 86,6 klux 564 W/m² 8,7 °C
09.06.2026 12:00 15,3 °C 23,0 °C 16,0 °C 69 % 46 % 1013,5 hPa 0,33 l/m² 51,3 km/h (7 Bft) S-SW 0,25 h 68,1 klux 444 W/m² 9,5 °C
09.06.2026 13:00 17,0 °C 23,0 °C 16,8 °C 62 % 44 % 1013,3 hPa 0,00 l/m² 51,3 km/h (7 Bft) S-SW 0,50 h 97,3 klux 634 W/m² 9,7 °C
09.06.2026 14:00 15,3 °C 23,0 °C 15,1 °C 64 % 46 % 1014,5 hPa 0,00 l/m² 51,3 km/h (7 Bft) S-SW 0,50 h 54,1 klux 352 W/m² 8,6 °C
09.06.2026 15:00 17,6 °C 23,0 °C 18,0 °C 54 % 38 % 1014,5 hPa 0,00 l/m² 51,3 km/h (7 Bft) S-SW 0,75 h 82,9 klux 540 W/m² 8,3 °C
09.06.2026 16:00 17,9 °C 23,4 °C 17,9 °C 50 % 37 % 1015,0 hPa 0,00 l/m² 51,3 km/h (7 Bft) S-SW 0,50 h 61,7 klux 402 W/m² 7,3 °C
09.06.2026 17:00 17,5 °C 23,3 °C 17,6 °C 50 % 36 % 1015,3 hPa 0,00 l/m² 51,3 km/h (7 Bft) S-SW 1,00 h 63,1 klux 411 W/m² 6,9 °C
09.06.2026 18:00 18,9 °C 23,6 °C 18,4 °C 47 % 36 % 1015,2 hPa 0,00 l/m² 51,3 km/h (7 Bft) S-SW 1,00 h 51,5 klux 335 W/m² 7,3 °C
09.06.2026 19:00 18,4 °C 23,6 °C 17,9 °C 48 % 37 % 1015,2 hPa 0,00 l/m² 51,3 km/h (7 Bft) S-SW 0,50 h 21,6 klux 141 W/m² 7,0 °C
09.06.2026 20:00 21,2 °C 23,7 °C 22,5 °C 41 % 26 % 1015,0 hPa 0,00 l/m² 51,3 km/h (7 Bft) S-SW 0,75 h 14,1 klux 92 W/m² 7,4 °C
09.06.2026 21:00 14,7 °C 23,6 °C 15,6 °C 62 % 43 % 1015,6 hPa 0,00 l/m² 51,3 km/h (7 Bft) S-SW 0,25 h 1,22 klux 13 W/m² 7,3 °C
09.06.2026 22:00 12,0 °C 23,1 °C 11,7 °C 74 % 55 % 1015,9 hPa 0,00 l/m² 51,3 km/h (7 Bft) S-SW 0,00 h 34 lux 0 W/m² 7,5 °C
09.06.2026 23:00 10,9 °C 22,6 °C 10,6 °C 79 % 60 % 1017,1 hPa 0,00 l/m² 51,3 km/h (7 Bft) S-SW 0,00 h 0 lux 0 W/m² 7,3 °C
10.06.2026 00:00 11,0 °C 22,1 °C 10,7 °C 79 % 63 % 1017,0 hPa 0,00 l/m² 51,3 km/h (7 Bft) S-SW 0,00 h 0 lux 0 W/m² 7,5 °C
10.06.2026 01:00 11,4 °C 21,8 °C 11,1 °C 79 % 61 % 1017,0 hPa 0,00 l/m² 51,3 km/h (7 Bft) S-SW 0,00 h 0 lux 0 W/m² 7,8 °C
10.06.2026 02:00 10,9 °C 21,5 °C 10,4 °C 80 % 64 % 1017,1 hPa 0,00 l/m² 51,3 km/h (7 Bft) S-SW 0,00 h 0 lux 0 W/m² 7,5 °C
10.06.2026 03:00 9,8 °C 21,3 °C 9,4 °C 82 % 79 % 1017,2 hPa 0,00 l/m² 51,3 km/h (7 Bft) S-SW 0,00 h 0 lux 0 W/m² 6,8 °C
10.06.2026 04:00 9,3 °C 20,8 °C 8,8 °C 83 % 84 % 1017,2 hPa 0,00 l/m² 51,3 km/h (7 Bft) S-SW 0,00 h 82 lux 0 W/m² 6,5 °C
10.06.2026 05:00 9,5 °C 20,6 °C 9,1 °C 82 % 83 % 1017,2 hPa 0,00 l/m² 51,3 km/h (7 Bft) S-SW 0,00 h 1,05 klux 7 W/m² 6,6 °C
10.06.2026 06:00 10,4 °C 20,5 °C 10,0 °C 81 % 71 % 1016,9 hPa 0,00 l/m² 51,3 km/h (7 Bft) S-SW 0,00 h 5,52 klux 36 W/m² 7,3 °C
10.06.2026 07:00 13,6 °C 20,5 °C 14,3 °C 75 % 50 % 1016,8 hPa 0,00 l/m² 51,3 km/h (7 Bft) S-SW 0,00 h 12,5 klux 81 W/m² 9,2 °C
10.06.2026 08:00 15,8 °C 20,9 °C 18,1 °C 60 % 36 % 1016,5 hPa 0,00 l/m² 51,3 km/h (7 Bft) S-SW 0,00 h 25,4 klux 165 W/m² 8,1 °C
10.06.2026 09:00 16,7 °C 21,4 °C 17,7 °C 58 % 39 % 1016,4 hPa 0,00 l/m² 51,3 km/h (7 Bft) S-SW 0,50 h 52,6 klux 342 W/m² 8,4 °C
10.06.2026 10:00 16,8 °C 22,2 °C 18,6 °C 58 % 38 % 1016,4 hPa 0,00 l/m² 51,3 km/h (7 Bft) S-SW 0,00 h 51,9 klux 338 W/m² 8,5 °C
10.06.2026 11:00 17,3 °C 22,5 °C 19,3 °C 54 % 36 % 1016,1 hPa 0,00 l/m² 51,3 km/h (7 Bft) S-SW 0,25 h 57,9 klux 377 W/m² 7,8 °C
10.06.2026 12:00 17,6 °C 22,5 °C 20,0 °C 50 % 29 % 1015,3 hPa 0,00 l/m² 51,3 km/h (7 Bft) S-SW 0,25 h 69,6 klux 454 W/m² 6,9 °C
10.06.2026 13:00 18,5 °C 22,5 °C 20,8 °C 47 % 21 % 1015,2 hPa 0,00 l/m² 51,3 km/h (7 Bft) S-SW 0,50 h 77,8 klux 507 W/m² 6,9 °C
10.06.2026 14:00 19,5 °C 22,8 °C 21,0 °C 42 % 15 % 1015,1 hPa 0,00 l/m² 51,3 km/h (7 Bft) S-SW 1,00 h 89,1 klux 580 W/m² 6,1 °C
10.06.2026 15:00 20,3 °C 23,2 °C 21,8 °C 39 % 15 % 1014,3 hPa 0,00 l/m² 51,3 km/h (7 Bft) S-SW 1,00 h 89,3 klux 582 W/m² 6,0 °C
10.06.2026 16:00 20,3 °C 23,6 °C 21,5 °C 39 % 15 % 1014,3 hPa 0,00 l/m² 51,3 km/h (7 Bft) S-SW 0,50 h 63,4 klux 413 W/m² 5,9 °C
10.06.2026 17:00 18,8 °C 23,5 °C 19,2 °C 44 % 15 % 1014,4 hPa 0,00 l/m² 51,3 km/h (7 Bft) S-SW 0,00 h 25,1 klux 163 W/m² 6,3 °C
10.06.2026 18:00 17,9 °C 23,1 °C 18,5 °C 47 % 19 % 1015,0 hPa 0,00 l/m² 51,3 km/h (7 Bft) S-SW 0,00 h 19,2 klux 125 W/m² 6,3 °C
10.06.2026 19:00 23,8 °C 23,3 °C 25,3 °C 35 % 15 % 1014,2 hPa 0,00 l/m² 51,3 km/h (7 Bft) S-SW 1,00 h 36,4 klux 237 W/m² 7,3 °C
10.06.2026 20:00 18,5 °C 23,4 °C 17,9 °C 47 % 25 % 1015,2 hPa 0,00 l/m² 51,3 km/h (7 Bft) S-SW 0,50 h 12,9 klux 84 W/m² 6,9 °C
10.06.2026 21:00 14,5 °C 23,0 °C 14,2 °C 60 % 41 % 1016,2 hPa 0,00 l/m² 51,3 km/h (7 Bft) S-SW 0,25 h 1,29 klux 12 W/m² 6,8 °C
10.06.2026 22:00 13,2 °C 22,3 °C 12,7 °C 63 % 44 % 1016,8 hPa 0,00 l/m² 51,3 km/h (7 Bft) S-SW 0,00 h 34 lux 0 W/m² 6,3 °C
10.06.2026 23:00 11,7 °C 22,0 °C 11,2 °C 70 % 50 % 1017,7 hPa 0,00 l/m² 51,3 km/h (7 Bft) S-SW 0,00 h 0 lux 0 W/m² 6,3 °C
11.06.2026 00:00 10,6 °C 21,6 °C 10,1 °C 75 % 56 % 1018,1 hPa 0,00 l/m² 51,3 km/h (7 Bft) S-SW 0,00 h 0 lux 0 W/m² 6,2 °C
11.06.2026 01:00 9,5 °C 21,3 °C 9,1 °C 78 % 59 % 1018,0 hPa 0,00 l/m² 51,3 km/h (7 Bft) S-SW 0,00 h 0 lux 0 W/m² 5,9 °C
11.06.2026 02:00 8,9 °C 20,9 °C 8,4 °C 81 % 67 % 1018,3 hPa 0,00 l/m² 51,3 km/h (7 Bft) S-SW 0,00 h 0 lux 0 W/m² 5,8 °C
11.06.2026 03:00 8,8 °C 20,5 °C 8,3 °C 81 % 82 % 1018,3 hPa 0,00 l/m² 51,3 km/h (7 Bft) S-SW 0,00 h 0 lux 0 W/m² 5,7 °C
11.06.2026 04:00 8,5 °C 20,2 °C 7,9 °C 82 % 82 % 1018,3 hPa 0,00 l/m² 51,3 km/h (7 Bft) S-SW 0,00 h 73 lux 0 W/m² 5,5 °C
11.06.2026 05:00 8,8 °C 19,8 °C 8,1 °C 82 % 81 % 1018,3 hPa 0,00 l/m² 51,3 km/h (7 Bft) S-SW 0,00 h 690 lux 4 W/m² 5,8 °C
11.06.2026 06:00 9,7 °C 19,7 °C 9,1 °C 81 % 71 % 1018,2 hPa 0,00 l/m² 51,3 km/h (7 Bft) S-SW 0,00 h 2,62 klux 17 W/m² 6,5 °C
11.06.2026 07:00 10,6 °C 19,6 °C 10,2 °C 80 % 63 % 1018,9 hPa 0,00 l/m² 51,3 km/h (7 Bft) S-SW 0,00 h 3,49 klux 23 W/m² 7,4 °C
11.06.2026 08:00 12,0 °C 19,6 °C 12,3 °C 77 % 53 % 1019,0 hPa 0,00 l/m² 51,3 km/h (7 Bft) S-SW 0,00 h 14,3 klux 93 W/m² 8,1 °C
11.06.2026 09:00 13,5 °C 19,8 °C 14,1 °C 70 % 46 % 1018,8 hPa 0,00 l/m² 51,3 km/h (7 Bft) S-SW 0,00 h 34,9 klux 228 W/m² 8,2 °C
11.06.2026 10:00 14,3 °C 20,3 °C 15,1 °C 67 % 44 % 1018,8 hPa 0,00 l/m² 51,3 km/h (7 Bft) S-SW 0,25 h 44,3 klux 288 W/m² 8,3 °C
11.06.2026 11:00 14,8 °C 20,6 °C 15,6 °C 67 % 44 % 1018,7 hPa 0,00 l/m² 51,3 km/h (7 Bft) S-SW 0,50 h 69,1 klux 450 W/m² 8,6 °C
11.06.2026 12:00 15,6 °C 20,9 °C 16,5 °C 61 % 41 % 1018,6 hPa 0,00 l/m² 51,3 km/h (7 Bft) S-SW 0,75 h 80,1 klux 522 W/m² 8,0 °C
11.06.2026 13:00 12,1 °C 20,8 °C 12,6 °C 78 % 55 % 1019,8 hPa 1,98 l/m² 51,3 km/h (7 Bft) S-SW 0,50 h 73,0 klux 476 W/m² 8,4 °C
11.06.2026 14:00 15,5 °C 20,9 °C 16,1 °C 65 % 43 % 1019,1 hPa 0,22 l/m² 51,3 km/h (7 Bft) S-SW 1,00 h 90,9 klux 592 W/m² 9,0 °C
11.06.2026 15:00 14,5 °C 20,9 °C 15,6 °C 73 % 48 % 1019,8 hPa 0,88 l/m² 51,3 km/h (7 Bft) S-SW 0,50 h 64,1 klux 417 W/m² 9,6 °C
11.06.2026 16:00 13,7 °C 20,9 °C 14,4 °C 76 % 50 % 1019,6 hPa 0,44 l/m² 51,3 km/h (7 Bft) S-SW 0,75 h 70,5 klux 459 W/m² 9,5 °C
11.06.2026 17:00 16,5 °C 21,3 °C 17,9 °C 60 % 39 % 1018,5 hPa 0,00 l/m² 51,3 km/h (7 Bft) S-SW 1,00 h 59,3 klux 387 W/m² 8,8 °C
11.06.2026 18:00 17,6 °C 21,7 °C 18,1 °C 57 % 40 % 1018,4 hPa 0,00 l/m² 51,3 km/h (7 Bft) S-SW 0,50 h 26,5 klux 173 W/m² 9,0 °C
11.06.2026 19:00 15,1 °C 21,5 °C 14,6 °C 65 % 48 % 1018,9 hPa 1,10 l/m² 51,3 km/h (7 Bft) S-SW 0,25 h 9,0 klux 59 W/m² 8,4 °C
11.06.2026 20:00 11,8 °C 21,0 °C 12,3 °C 81 % 59 % 1020,1 hPa 0,22 l/m² 51,3 km/h (7 Bft) S-SW 0,00 h 2,48 klux 16 W/m² 8,6 °C
11.06.2026 21:00 11,7 °C 20,6 °C 11,9 °C 83 % 68 % 1020,1 hPa 0,11 l/m² 51,3 km/h (7 Bft) S-SW 0,00 h 564 lux 6 W/m² 8,9 °C
11.06.2026 22:00 11,3 °C 20,3 °C 11,0 °C 83 % 83 % 1020,4 hPa 0,00 l/m² 51,3 km/h (7 Bft) S-SW 0,00 h 25 lux 0 W/m² 8,5 °C
11.06.2026 23:00 10,6 °C 20,1 °C 10,1 °C 83 % 87 % 1021,0 hPa 0,00 l/m² 51,3 km/h (7 Bft) S-SW 0,00 h 0 lux 0 W/m² 7,8 °C
12.06.2026 00:00 10,4 °C 20,0 °C 9,9 °C 83 % 89 % 1020,2 hPa 0,00 l/m² 51,3 km/h (7 Bft) S-SW 0,00 h 0 lux 0 W/m² 7,7 °C
12.06.2026 01:00 10,4 °C 19,7 °C 9,8 °C 83 % 90 % 1020,2 hPa 0,00 l/m² 51,3 km/h (7 Bft) S-SW 0,00 h 0 lux 0 W/m² 7,7 °C
12.06.2026 02:00 10,4 °C 19,4 °C 9,6 °C 83 % 91 % 1019,2 hPa 0,11 l/m² 51,3 km/h (7 Bft) S-SW 0,00 h 0 lux 0 W/m² 7,6 °C
12.06.2026 03:00 10,5 °C 19,1 °C 9,6 °C 83 % 91 % 1018,6 hPa 0,00 l/m² 51,3 km/h (7 Bft) S-SW 0,00 h 0 lux 0 W/m² 7,7 °C
12.06.2026 04:00 10,7 °C 18,8 °C 9,6 °C 83 % 90 % 1017,9 hPa 0,00 l/m² 51,3 km/h (7 Bft) S-SW 0,00 h 0 lux 0 W/m² 7,9 °C
12.06.2026 05:00 10,4 °C 18,5 °C 9,6 °C 83 % 91 % 1017,1 hPa 0,22 l/m² 51,3 km/h (7 Bft) S-SW 0,00 h 196 lux 1 W/m² 7,6 °C
12.06.2026 06:00 10,5 °C 18,3 °C 9,6 °C 83 % 92 % 1017,1 hPa 0,22 l/m² 51,3 km/h (7 Bft) S-SW 0,00 h 1,36 klux 9 W/m² 7,7 °C
12.06.2026 07:00 10,9 °C 18,2 °C 10,1 °C 82 % 93 % 1017,1 hPa 0,55 l/m² 51,3 km/h (7 Bft) S-SW 0,00 h 6,92 klux 45 W/m² 7,9 °C
12.06.2026 08:00 11,4 °C 18,2 °C 10,5 °C 82 % 93 % 1017,0 hPa 1,10 l/m² 51,3 km/h (7 Bft) S-SW 0,00 h 5,67 klux 37 W/m² 8,4 °C
12.06.2026 09:00 11,7 °C 18,3 °C 10,9 °C 83 % 93 % 1017,0 hPa 1,87 l/m² 51,3 km/h (7 Bft) S-SW 0,00 h 6,95 klux 45 W/m² 8,9 °C
12.06.2026 10:00 12,3 °C 18,4 °C 11,9 °C 82 % 92 % 1016,9 hPa 0,55 l/m² 51,3 km/h (7 Bft) S-SW 0,00 h 11,8 klux 77 W/m² 9,3 °C
12.06.2026 11:00 12,3 °C 18,6 °C 13,1 °C 82 % 89 % 1016,9 hPa 0,88 l/m² 51,3 km/h (7 Bft) S-SW 0,00 h 12,4 klux 81 W/m² 9,3 °C
12.06.2026 12:00 13,5 °C 18,8 °C 13,9 °C 82 % 86 % 1016,8 hPa 0,22 l/m² 51,3 km/h (7 Bft) S-SW 0,00 h 12,5 klux 81 W/m² 10,5 °C
12.06.2026 13:00 14,1 °C 18,9 °C 14,6 °C 82 % 85 % 1016,7 hPa 0,11 l/m² 51,3 km/h (7 Bft) S-SW 0,00 h 11,2 klux 73 W/m² 11,1 °C
12.06.2026 14:00 15,5 °C 19,0 °C 15,2 °C 82 % 84 % 1016,6 hPa 0,00 l/m² 51,3 km/h (7 Bft) S-SW 0,00 h 13,2 klux 86 W/m² 12,4 °C
12.06.2026 15:00 15,9 °C 19,2 °C 15,6 °C 82 % 85 % 1016,5 hPa 0,66 l/m² 51,3 km/h (7 Bft) S-SW 0,00 h 12,0 klux 78 W/m² 12,8 °C
12.06.2026 16:00 16,4 °C 19,4 °C 16,0 °C 82 % 80 % 1016,5 hPa 0,77 l/m² 51,3 km/h (7 Bft) S-SW 0,00 h 20,9 klux 136 W/m² 13,3 °C
12.06.2026 17:00 17,0 °C 19,6 °C 17,3 °C 83 % 61 % 1016,4 hPa 0,00 l/m² 51,3 km/h (7 Bft) S-SW 0,00 h 19,5 klux 127 W/m² 14,1 °C
12.06.2026 18:00 17,2 °C 19,8 °C 17,6 °C 79 % 48 % 1016,4 hPa 0,00 l/m² 51,3 km/h (7 Bft) S-SW 0,00 h 10,1 klux 66 W/m² 13,5 °C
12.06.2026 19:00 16,9 °C 19,8 °C 17,3 °C 78 % 51 % 1016,4 hPa 0,00 l/m² 51,3 km/h (7 Bft) S-SW 0,00 h 6,99 klux 46 W/m² 13,0 °C
12.06.2026 20:00 16,3 °C 19,8 °C 16,6 °C 81 % 54 % 1017,5 hPa 0,00 l/m² 51,3 km/h (7 Bft) S-SW 0,00 h 2,47 klux 16 W/m² 13,0 °C
12.06.2026 21:00 16,1 °C 19,8 °C 15,8 °C 82 % 69 % 1017,0 hPa 0,00 l/m² 51,3 km/h (7 Bft) S-SW 0,00 h 331 lux 4 W/m² 13,0 °C
12.06.2026 22:00 15,8 °C 19,6 °C 14,8 °C 82 % 86 % 1017,6 hPa 0,00 l/m² 51,3 km/h (7 Bft) S-SW 0,00 h 19 lux 0 W/m² 12,8 °C
12.06.2026 23:00 14,7 °C 19,5 °C 14,5 °C 83 % 84 % 1017,7 hPa 0,00 l/m² 51,3 km/h (7 Bft) S-SW 0,00 h 0 lux 0 W/m² 11,8 °C
13.06.2026 00:00 14,5 °C 19,4 °C 13,9 °C 83 % 87 % 1017,2 hPa 0,00 l/m² 51,3 km/h (7 Bft) S-SW 0,00 h 0 lux 0 W/m² 11,6 °C
13.06.2026 01:00 14,5 °C 19,3 °C 13,8 °C 83 % 88 % 1016,7 hPa 0,00 l/m² 51,3 km/h (7 Bft) S-SW 0,00 h 0 lux 0 W/m² 11,6 °C
13.06.2026 02:00 14,7 °C 19,3 °C 14,0 °C 84 % 87 % 1016,6 hPa 0,00 l/m² 51,3 km/h (7 Bft) S-SW 0,00 h 0 lux 0 W/m² 12,0 °C
13.06.2026 03:00 14,5 °C 19,3 °C 13,9 °C 83 % 87 % 1016,7 hPa 2,86 l/m² 51,3 km/h (7 Bft) S-SW 0,00 h 0 lux 0 W/m² 11,7 °C
13.06.2026 04:00 14,0 °C 19,2 °C 13,2 °C 82 % 91 % 1016,7 hPa 0,33 l/m² 51,3 km/h (7 Bft) S-SW 0,00 h 84 lux 0 W/m² 11,0 °C
13.06.2026 05:00 13,8 °C 19,2 °C 12,8 °C 82 % 92 % 1016,7 hPa 0,00 l/m² 51,3 km/h (7 Bft) S-SW 0,00 h 1,13 klux 7 W/m² 10,8 °C
13.06.2026 06:00 13,9 °C 19,1 °C 12,8 °C 83 % 93 % 1016,7 hPa 3,52 l/m² 51,3 km/h (7 Bft) S-SW 0,00 h 1,67 klux 11 W/m² 11,0 °C
13.06.2026 07:00 14,0 °C 19,2 °C 12,7 °C 83 % 94 % 1016,7 hPa 1,87 l/m² 51,3 km/h (7 Bft) S-SW 0,00 h 5,16 klux 34 W/m² 11,1 °C
13.06.2026 08:00 14,3 °C 19,3 °C 13,4 °C 83 % 93 % 1016,7 hPa 0,11 l/m² 51,3 km/h (7 Bft) S-SW 0,00 h 23,5 klux 153 W/m² 11,5 °C
13.06.2026 09:00 14,6 °C 19,6 °C 14,0 °C 83 % 81 % 1016,7 hPa 0,22 l/m² 51,3 km/h (7 Bft) S-SW 0,25 h 40,3 klux 262 W/m² 11,7 °C
13.06.2026 10:00 17,3 °C 20,7 °C 18,2 °C 79 % 50 % 1015,9 hPa 0,00 l/m² 51,3 km/h (7 Bft) S-SW 1,00 h 80,4 klux 524 W/m² 13,6 °C
13.06.2026 11:00 18,0 °C 21,2 °C 18,6 °C 71 % 45 % 1015,3 hPa 0,00 l/m² 51,3 km/h (7 Bft) S-SW 0,25 h 48,5 klux 316 W/m² 12,5 °C
13.06.2026 12:00 18,5 °C 21,2 °C 19,3 °C 64 % 42 % 1015,2 hPa 0,00 l/m² 51,3 km/h (7 Bft) S-SW 0,00 h 39,3 klux 256 W/m² 11,6 °C
13.06.2026 13:00 18,9 °C 21,3 °C 19,4 °C 60 % 40 % 1014,4 hPa 0,00 l/m² 51,3 km/h (7 Bft) S-SW 0,25 h 69,3 klux 451 W/m² 10,9 °C
13.06.2026 14:00 19,4 °C 21,4 °C 19,6 °C 55 % 39 % 1014,1 hPa 0,00 l/m² 51,3 km/h (7 Bft) S-SW 0,75 h 69,7 klux 454 W/m² 10,2 °C
13.06.2026 15:00 20,2 °C 21,7 °C 20,8 °C 53 % 36 % 1014,0 hPa 0,00 l/m² 51,3 km/h (7 Bft) S-SW 0,75 h 92,7 klux 604 W/m² 10,2 °C
13.06.2026 16:00 19,4 °C 22,2 °C 19,2 °C 54 % 39 % 1014,1 hPa 0,00 l/m² 51,3 km/h (7 Bft) S-SW 0,50 h 47,4 klux 309 W/m² 9,8 °C
13.06.2026 17:00 18,3 °C 22,1 °C 18,6 °C 57 % 41 % 1014,2 hPa 0,00 l/m² 51,3 km/h (7 Bft) S-SW 0,75 h 56,5 klux 368 W/m² 9,7 °C
13.06.2026 18:00 17,4 °C 22,0 °C 17,3 °C 55 % 41 % 1014,6 hPa 0,00 l/m² 51,3 km/h (7 Bft) S-SW 0,25 h 13,9 klux 91 W/m² 8,2 °C
13.06.2026 19:00 16,2 °C 21,5 °C 16,4 °C 61 % 44 % 1015,5 hPa 0,00 l/m² 51,3 km/h (7 Bft) S-SW 0,00 h 9,8 klux 64 W/m² 8,6 °C
13.06.2026 20:00 15,3 °C 21,2 °C 15,5 °C 63 % 46 % 1015,6 hPa 0,00 l/m² 51,3 km/h (7 Bft) S-SW 0,00 h 3,95 klux 26 W/m² 8,2 °C
13.06.2026 21:00 14,4 °C 21,0 °C 14,6 °C 64 % 47 % 1015,7 hPa 0,00 l/m² 51,3 km/h (7 Bft) S-SW 0,00 h 759 lux 6 W/m² 7,8 °C
13.06.2026 22:00 13,5 °C 20,7 °C 13,7 °C 66 % 48 % 1015,8 hPa 0,00 l/m² 51,3 km/h (7 Bft) S-SW 0,00 h 37 lux 0 W/m² 7,2 °C
13.06.2026 23:00 12,9 °C 20,3 °C 13,2 °C 67 % 49 % 1015,8 hPa 0,00 l/m² 51,3 km/h (7 Bft) S-SW 0,00 h 0 lux 0 W/m² 6,9 °C
14.06.2026 00:00 12,5 °C 20,1 °C 12,7 °C 70 % 52 % 1015,9 hPa 0,00 l/m² 51,3 km/h (7 Bft) S-SW 0,00 h 0 lux 0 W/m² 7,1 °C
14.06.2026 01:00 12,1 °C 19,9 °C 12,4 °C 72 % 52 % 1015,1 hPa 0,00 l/m² 51,3 km/h (7 Bft) S-SW 0,00 h 0 lux 0 W/m² 7,1 °C
14.06.2026 02:00 11,7 °C 19,6 °C 11,9 °C 73 % 54 % 1014,9 hPa 0,00 l/m² 51,3 km/h (7 Bft) S-SW 0,00 h 0 lux 0 W/m² 7,0 °C
14.06.2026 03:00 11,5 °C 19,4 °C 11,7 °C 74 % 55 % 1014,7 hPa 0,00 l/m² 51,3 km/h (7 Bft) S-SW 0,00 h 0 lux 0 W/m² 7,0 °C
14.06.2026 04:00 11,5 °C 19,3 °C 11,5 °C 76 % 56 % 1013,9 hPa 0,00 l/m² 51,3 km/h (7 Bft) S-SW 0,00 h 0 lux 0 W/m² 7,3 °C
14.06.2026 05:00 11,5 °C 19,3 °C 11,6 °C 77 % 56 % 1013,6 hPa 0,00 l/m² 51,3 km/h (7 Bft) S-SW 0,00 h 371 lux 2 W/m² 7,5 °C
14.06.2026 06:00 11,1 °C 19,0 °C 11,4 °C 81 % 59 % 1013,4 hPa 0,00 l/m² 51,3 km/h (7 Bft) S-SW 0,00 h 2,15 klux 14 W/m² 7,9 °C
14.06.2026 07:00 11,7 °C 18,8 °C 11,8 °C 78 % 57 % 1013,1 hPa 0,00 l/m² 51,3 km/h (7 Bft) S-SW 0,00 h 6,55 klux 43 W/m² 8,0 °C
14.06.2026 08:00 12,1 °C 18,7 °C 12,5 °C 75 % 52 % 1012,8 hPa 0,00 l/m² 51,3 km/h (7 Bft) S-SW 0,00 h 11,7 klux 76 W/m² 7,9 °C
14.06.2026 09:00 13,0 °C 18,8 °C 13,4 °C 72 % 49 % 1012,7 hPa 0,00 l/m² 51,3 km/h (7 Bft) S-SW 0,00 h 21,0 klux 137 W/m² 8,0 °C
14.06.2026 10:00 14,1 °C 19,1 °C 14,5 °C 68 % 47 % 1012,6 hPa 0,00 l/m² 51,3 km/h (7 Bft) S-SW 0,25 h 34,8 klux 227 W/m² 8,3 °C
14.06.2026 11:00 15,2 °C 19,4 °C 15,6 °C 63 % 44 % 1012,5 hPa 0,00 l/m² 51,3 km/h (7 Bft) S-SW 0,50 h 76,7 klux 500 W/m² 8,2 °C
14.06.2026 12:00 13,7 °C 19,6 °C 13,8 °C 74 % 53 % 1013,2 hPa 0,11 l/m² 51,3 km/h (7 Bft) S-SW 0,00 h 40,0 klux 261 W/m² 9,1 °C
14.06.2026 13:00 14,9 °C 19,6 °C 15,4 °C 68 % 46 % 1012,5 hPa 0,00 l/m² 51,3 km/h (7 Bft) S-SW 0,00 h 40,8 klux 266 W/m² 8,9 °C
14.06.2026 14:00 15,6 °C 19,7 °C 16,0 °C 63 % 43 % 1012,4 hPa 0,00 l/m² 51,3 km/h (7 Bft) S-SW 0,25 h 69,7 klux 454 W/m² 8,5 °C
14.06.2026 15:00 15,3 °C 20,0 °C 15,5 °C 66 % 47 % 1012,5 hPa 0,00 l/m² 51,3 km/h (7 Bft) S-SW 0,00 h 34,6 klux 226 W/m² 9,1 °C
14.06.2026 16:00 16,3 °C 20,1 °C 16,4 °C 61 % 42 % 1012,4 hPa 0,00 l/m² 51,3 km/h (7 Bft) S-SW 0,50 h 40,6 klux 264 W/m² 8,6 °C
14.06.2026 17:00 13,2 °C 20,0 °C 13,3 °C 79 % 57 % 1013,2 hPa 0,66 l/m² 51,3 km/h (7 Bft) S-SW 0,25 h 27,6 klux 180 W/m² 9,5 °C
14.06.2026 18:00 13,4 °C 19,9 °C 13,3 °C 80 % 64 % 1013,4 hPa 0,66 l/m² 51,3 km/h (7 Bft) S-SW 0,00 h 17,9 klux 116 W/m² 10,0 °C
14.06.2026 19:00 14,0 °C 19,7 °C 14,2 °C 78 % 55 % 1013,6 hPa 0,00 l/m² 51,3 km/h (7 Bft) S-SW 0,50 h 26,7 klux 174 W/m² 10,3 °C
14.06.2026 20:00 13,5 °C 19,8 °C 13,8 °C 79 % 55 % 1013,7 hPa 0,00 l/m² 51,3 km/h (7 Bft) S-SW 0,00 h 6,10 klux 40 W/m² 10,0 °C
14.06.2026 21:00 12,7 °C 19,6 °C 12,9 °C 80 % 56 % 1013,8 hPa 0,00 l/m² 51,3 km/h (7 Bft) S-SW 0,25 h 2,20 klux 20 W/m² 9,4 °C
14.06.2026 22:00 11,8 °C 19,3 °C 11,8 °C 81 % 60 % 1013,9 hPa 0,00 l/m² 51,3 km/h (7 Bft) S-SW 0,00 h 50 lux 0 W/m² 8,7 °C
14.06.2026 23:00 11,3 °C 19,1 °C 11,4 °C 81 % 61 % 1013,9 hPa 0,00 l/m² 51,3 km/h (7 Bft) S-SW 0,00 h 0 lux 0 W/m² 8,2 °C
Min-Datum _ 11.06.26 12.06.26 11.06.26 10.06.26 08.06.26 09.06.26 - 08.06.26 - - - - 11.06.26
_ Min-Zeit 04:45 07:00 04:30 19:45 13:15 00:30 - 00:00 - - - - 04:45
Minimum _ 8,3 °C 18,2 °C 7,8 °C 32 % 15 % 1010,2 hPa - 51,3 km/h (7 Bft) - - - - 5,4 °C
Max-Datum _ 08.06.26 08.06.26 10.06.26 08.06.26 13.06.26 08.06.26 13.06.26 08.06.26 - 08.06.26 14.06.26 14.06.26 12.06.26
_ Max-Zeit 15:30 17:45 19:30 03:45 08:09 00:30 06:54 00:00 - 05:45 14:30 14:30 17:54
Maximum _ 26,2 °C 26,8 °C 27,8 °C 84 % 95 % 1023,2 hPa 3,52 l/m² 51,3 km/h
S-SW (7 Bft)
- 0,25 h 117 klux 762 W/m² 14,4 °C
Durchschnitt _ 14,9 °C 21,3 °C 15,1 °C 70 % 56 % 1016,0 hPa #23,87 l/m² 51,3 km/h (7 Bft) S-SW #33:30 h 23,0 klux 212 W/m² 9,1 °C